Time;durP1;ratioP1;P1;durP2;ratioP2;P2;SDS_P1;SDS_P2;PMS_P1;PMS_P2;Temp;Humidity;BMP_temperature;BMP_pressure;BME280_temperature;BME280_humidity;BME280_pressure;Samples;Min_cycle;Max_cycle;Signal;HPM_P1;HPM_P2
2022/11/06 00:00:25;;;;;;;17.20;10.10;;;8.40;99.90;;;;;;5014294;28;20965;-57
2022/11/06 00:03:11;;;;;;;12.85;9.30;;;8.40;99.90;;;;;;5030257;28;20417;-56
2022/11/06 00:09:13;;;;;;;13.55;8.57;;;8.40;99.90;;;;;;5030452;28;20030;-58
2022/11/06 00:12:02;;;;;;;12.95;8.80;;;8.40;99.90;;;;;;5015443;28;20112;-57
2022/11/06 00:14:48;;;;;;;14.32;8.57;;;8.30;99.90;;;;;;5029526;28;20029;-54
2022/11/06 00:17:34;;;;;;;13.05;8.65;;;8.20;99.90;;;;;;5031868;28;20135;-57
2022/11/06 00:20:20;;;;;;;15.23;8.93;;;8.20;99.90;;;;;;4986767;28;20048;-55
2022/11/06 00:23:06;;;;;;;13.02;8.63;;;8.20;99.90;;;;;;5002205;28;20517;-53
2022/11/06 00:25:55;;;;;;;12.40;8.02;;;8.20;99.90;;;;;;5030540;28;20022;-55
2022/11/06 00:28:42;;;;;;;13.10;8.15;;;8.20;99.90;;;;;;5033652;28;20037;-57
2022/11/06 00:31:30;;;;;;;11.77;8.40;;;8.20;99.90;;;;;;5033306;28;20076;-54
2022/11/06 00:34:16;;;;;;;13.07;8.23;;;8.20;99.90;;;;;;5024562;28;20108;-54
2022/11/06 00:37:02;;;;;;;14.13;8.95;;;8.20;99.90;;;;;;5030332;28;20030;-54
2022/11/06 00:39:48;;;;;;;11.13;8.30;;;8.20;99.90;;;;;;5033658;28;20037;-56
2022/11/06 00:42:34;;;;;;;12.73;8.00;;;8.20;99.90;;;;;;5033929;28;20076;-56
2022/11/06 00:45:20;;;;;;;12.55;7.97;;;8.30;99.90;;;;;;5033600;28;20053;-56
2022/11/06 00:48:06;;;;;;;11.00;8.20;;;8.30;99.90;;;;;;5031887;28;20041;-54
2022/11/06 00:50:52;;;;;;;15.23;9.85;;;8.30;99.90;;;;;;5014868;28;20045;-52
2022/11/06 00:53:39;;;;;;;15.50;9.98;;;8.40;99.90;;;;;;5032593;28;20034;-55
2022/11/06 00:56:25;;;;;;;13.45;10.40;;;8.30;99.90;;;;;;5042598;28;20432;-57
2022/11/06 00:59:13;;;;;;;13.13;9.50;;;8.30;99.90;;;;;;5039291;28;20521;-55
2022/11/06 01:01:58;;;;;;;14.32;9.25;;;8.30;99.90;;;;;;5032713;28;20517;-53
2022/11/06 01:04:45;;;;;;;15.88;9.13;;;8.30;99.90;;;;;;5017996;28;20096;-56
2022/11/06 01:07:31;;;;;;;12.95;9.15;;;8.30;99.90;;;;;;5018712;28;20065;-55
2022/11/06 01:10:17;;;;;;;17.67;9.93;;;8.20;99.90;;;;;;5013707;28;20029;-57
2022/11/06 01:13:03;;;;;;;15.43;10.02;;;8.10;99.90;;;;;;5016123;28;20033;-57
2022/11/06 01:15:49;;;;;;;13.50;9.55;;;8.00;99.90;;;;;;5020077;28;20035;-57
2022/11/06 01:18:36;;;;;;;15.15;9.75;;;8.00;99.90;;;;;;5045586;28;20029;-56
2022/11/06 01:21:29;;;;;;;19.08;10.77;;;7.90;99.90;;;;;;5048620;28;20022;-57
2022/11/06 01:24:26;;;;;;;14.70;10.02;;;7.90;99.90;;;;;;5053462;28;20044;-56
2022/11/06 01:27:12;;;;;;;14.30;10.25;;;7.90;99.90;;;;;;5041013;28;20022;-56
2022/11/06 01:29:58;;;;;;;13.20;10.10;;;8.00;99.90;;;;;;5040900;28;20053;-55
2022/11/06 01:32:44;;;;;;;14.90;10.60;;;8.10;99.90;;;;;;5018361;28;20449;-55
2022/11/06 01:35:30;;;;;;;13.77;10.43;;;8.10;99.90;;;;;;5033448;28;20094;-53
2022/11/06 01:38:16;;;;;;;14.02;9.82;;;8.20;99.90;;;;;;5013091;28;20164;-53
2022/11/06 01:41:02;;;;;;;17.92;10.50;;;8.30;99.90;;;;;;5013627;28;20117;-54
2022/11/06 01:43:59;;;;;;;15.35;9.75;;;8.30;99.90;;;;;;5024368;28;20040;-51
2022/11/06 01:46:44;;;;;;;13.70;10.07;;;8.20;99.90;;;;;;5031677;28;20022;-56
2022/11/06 01:49:37;;;;;;;12.57;9.00;;;8.10;99.90;;;;;;5017138;28;20071;-56
2022/11/06 01:52:25;;;;;;;15.95;9.60;;;8.10;99.90;;;;;;5031559;28;20132;-54
2022/11/06 01:55:22;;;;;;;15.25;10.30;;;8.10;99.90;;;;;;5027432;28;20072;-54
2022/11/06 01:58:12;;;;;;;13.10;8.90;;;8.00;99.90;;;;;;5030856;28;20406;-54
2022/11/06 02:00:58;;;;;;;13.50;9.73;;;8.00;99.90;;;;;;5031507;28;20567;-55
2022/11/06 02:04:08;;;;;;;12.00;8.85;;;7.90;99.90;;;;;;5031253;28;20036;-54
2022/11/06 02:06:56;;;;;;;14.65;9.95;;;8.00;99.90;;;;;;5025546;28;20029;-56
2022/11/06 02:09:42;;;;;;;13.43;10.00;;;8.00;99.90;;;;;;5016479;28;20486;-54
2022/11/06 02:12:42;;;;;;;13.40;8.82;;;8.00;99.90;;;;;;5031230;28;20030;-58
2022/11/06 02:15:31;;;;;;;15.13;9.88;;;8.00;99.90;;;;;;5031771;28;20022;-57
2022/11/06 02:18:36;;;;;;;19.65;10.68;;;8.00;99.90;;;;;;5011925;28;20147;-59
2022/11/06 02:21:46;;;;;;;13.02;9.40;;;7.90;99.90;;;;;;5018537;28;20101;-55
2022/11/06 02:24:45;;;;;;;16.15;9.55;;;7.90;99.90;;;;;;5017211;28;20056;-55
2022/11/06 02:27:32;;;;;;;15.07;8.80;;;7.90;99.90;;;;;;5012636;28;20041;-54
2022/11/06 02:30:18;;;;;;;12.82;9.15;;;7.90;99.90;;;;;;5013758;28;20180;-53
2022/11/06 02:33:21;;;;;;;15.68;8.40;;;7.90;99.90;;;;;;5030920;28;20030;-53
2022/11/06 02:36:10;;;;;;;14.68;8.52;;;8.00;99.90;;;;;;5030865;28;20501;-56
2022/11/06 02:39:00;;;;;;;12.75;8.75;;;8.00;99.90;;;;;;5028012;28;20022;-51
2022/11/06 02:41:48;;;;;;;12.65;8.32;;;8.00;99.90;;;;;;5030276;28;20029;-53
2022/11/06 02:44:36;;;;;;;11.98;8.32;;;8.00;99.90;;;;;;5030093;28;20040;-57
2022/11/06 02:47:24;;;;;;;10.57;8.23;;;7.90;99.90;;;;;;5035388;28;20036;-57
2022/11/06 02:50:24;;;;;;;12.38;8.88;;;7.90;99.90;;;;;;5011955;28;20518;-54
2022/11/06 02:53:13;;;;;;;14.63;8.93;;;8.00;99.90;;;;;;5015119;28;20379;-55
2022/11/06 02:56:06;;;;;;;13.30;8.15;;;7.90;99.90;;;;;;5031902;28;20028;-56
2022/11/06 02:59:00;;;;;;;12.82;7.85;;;7.90;99.90;;;;;;5030127;28;20025;-54
2022/11/06 03:01:50;;;;;;;11.95;7.80;;;7.80;99.90;;;;;;5029910;28;20060;-51
2022/11/06 03:05:06;;;;;;;12.52;7.88;;;7.80;99.90;;;;;;5029204;28;20107;-54
2022/11/06 03:07:58;;;;;;;13.52;8.68;;;7.80;99.90;;;;;;5004565;28;20029;-54
2022/11/06 03:11:24;;;;;;;12.05;7.93;;;7.70;99.90;;;;;;5009919;28;20033;-51
2022/11/06 03:14:18;;;;;;;;;;;7.70;99.90;;;;;;5019424;28;20065;-51
2022/11/06 03:17:13;;;;;;;14.50;7.97;;;7.70;99.90;;;;;;5031665;28;19909;-56
2022/11/06 03:20:40;;;;;;;11.65;7.65;;;7.80;99.90;;;;;;5021411;28;20056;-56
2022/11/06 03:23:46;;;;;;;11.13;7.50;;;7.80;99.90;;;;;;5035861;28;20117;-55
2022/11/06 03:26:38;;;;;;;11.20;7.15;;;7.70;99.90;;;;;;5035163;28;20017;-55
2022/11/06 03:29:44;;;;;;;13.52;7.15;;;7.60;99.90;;;;;;5015658;28;20083;-52
2022/11/06 03:33:12;;;;;;;11.52;7.88;;;7.70;99.90;;;;;;5017242;28;20021;-55
2022/11/06 03:36:08;;;;;;;9.93;8.07;;;7.60;99.90;;;;;;5011164;28;20123;-54
2022/11/06 03:39:10;;;;;;;14.13;7.65;;;7.70;99.90;;;;;;5020306;28;20056;-54
2022/11/06 03:42:05;;;;;;;10.43;7.60;;;7.70;99.90;;;;;;5030017;28;20029;-56
2022/11/06 03:44:55;;;;;;;10.13;7.90;;;7.60;99.90;;;;;;5015436;28;20091;-58
2022/11/06 03:47:46;;;;;;;10.80;7.40;;;7.60;99.90;;;;;;5029231;28;20064;-58
2022/11/06 03:50:37;;;;;;;11.77;8.20;;;7.60;99.90;;;;;;5015396;28;20018;-53
2022/11/06 03:53:33;;;;;;;10.85;7.53;;;7.60;99.90;;;;;;5029733;28;20116;-54
2022/11/06 03:56:31;;;;;;;12.23;8.45;;;7.50;99.90;;;;;;5029949;28;20032;-51
2022/11/06 03:59:22;;;;;;;13.50;8.40;;;7.50;99.90;;;;;;5029159;28;20029;-55
2022/11/06 04:02:10;;;;;;;13.32;8.00;;;7.40;99.90;;;;;;5016325;28;20025;-55
2022/11/06 04:05:03;;;;;;;11.48;8.40;;;7.40;99.90;;;;;;5010495;28;20084;-54
2022/11/06 04:14:08;;;;;;;10.35;8.45;;;7.30;99.90;;;;;;5029258;28;20033;-54
2022/11/06 04:16:58;;;;;;;13.63;8.20;;;7.20;99.90;;;;;;5030376;28;20399;-55
2022/11/06 04:19:56;;;;;;;14.05;9.00;;;7.20;99.90;;;;;;5016339;28;20041;-55
2022/11/06 04:22:50;;;;;;;11.93;8.40;;;7.10;99.90;;;;;;5029303;28;20091;-54
2022/11/06 04:29:23;;;;;;;13.32;9.18;;;7.00;99.90;;;;;;5029442;28;20116;-55
2022/11/06 04:32:21;;;;;;;14.07;9.70;;;7.00;99.90;;;;;;5029233;28;20401;-53
2022/11/06 04:35:16;;;;;;;12.60;7.93;;;7.10;99.90;;;;;;5029150;28;20465;-52
2022/11/06 04:38:25;;;;;;;;;;;7.00;99.90;;;;;;5030185;28;20029;-54
2022/11/06 04:41:44;;;;;;;10.98;8.70;;;7.10;99.90;;;;;;5030342;28;20004;-52
2022/11/06 04:44:37;;;;;;;12.00;8.80;;;7.10;99.90;;;;;;5017709;28;20115;-53
2022/11/06 04:47:24;;;;;;;16.55;9.50;;;7.10;99.90;;;;;;5028484;28;20401;-54
2022/11/06 04:50:12;;;;;;;13.52;8.95;;;7.00;99.90;;;;;;5029119;28;20079;-54
2022/11/06 04:53:00;;;;;;;12.30;8.95;;;7.10;99.90;;;;;;5029515;28;20029;-54
2022/11/06 04:55:49;;;;;;;12.65;9.57;;;7.10;99.90;;;;;;5014405;28;20032;-53
2022/11/06 04:58:35;;;;;;;15.07;9.55;;;7.00;99.90;;;;;;5008677;28;20045;-53
2022/11/06 05:01:21;;;;;;;14.57;9.35;;;7.00;99.90;;;;;;5013702;28;20504;-55
2022/11/06 05:04:07;;;;;;;11.85;9.23;;;6.90;99.90;;;;;;5032453;28;20045;-53
2022/11/06 05:06:53;;;;;;;10.77;8.38;;;7.00;99.90;;;;;;5032138;28;20517;-54
2022/11/06 05:09:40;;;;;;;11.50;8.50;;;7.00;99.90;;;;;;5032106;28;20036;-55
2022/11/06 05:12:26;;;;;;;12.90;8.32;;;7.00;99.90;;;;;;5031473;28;20684;-52
2022/11/06 05:15:12;;;;;;;11.57;9.13;;;7.00;99.90;;;;;;5017953;28;20033;-53
2022/11/06 05:17:58;;;;;;;12.48;9.05;;;7.00;99.90;;;;;;5031453;28;20132;-56
2022/11/06 05:20:44;;;;;;;13.25;9.10;;;7.00;99.90;;;;;;5017889;28;20065;-53
2022/11/06 05:23:30;;;;;;;11.73;8.40;;;7.00;99.90;;;;;;5032245;28;20087;-51
2022/11/06 05:26:16;;;;;;;11.88;8.95;;;7.00;99.90;;;;;;5031749;28;20026;-54
2022/11/06 05:29:02;;;;;;;15.48;9.27;;;6.90;99.90;;;;;;5012253;28;20113;-55
2022/11/06 05:31:48;;;;;;;15.27;9.18;;;6.90;99.90;;;;;;5015325;28;20029;-55
2022/11/06 05:34:33;;;;;;;14.55;8.93;;;6.90;99.90;;;;;;5018126;28;20131;-55
2022/11/06 05:37:19;;;;;;;11.73;8.05;;;6.90;99.90;;;;;;5032839;28;20029;-54
2022/11/06 05:40:07;;;;;;;15.10;9.65;;;6.90;99.90;;;;;;5004714;28;20025;-56
2022/11/06 05:42:53;;;;;;;14.95;9.63;;;6.90;99.90;;;;;;5033139;28;20025;-53
2022/11/06 05:45:39;;;;;;;11.85;9.82;;;6.80;99.90;;;;;;5031702;28;20037;-54
2022/11/06 05:48:26;;;;;;;11.15;8.80;;;6.90;99.90;;;;;;5031455;28;20093;-55
2022/11/06 05:51:12;;;;;;;13.25;8.98;;;6.80;99.90;;;;;;5031014;28;20029;-55
2022/11/06 05:53:58;;;;;;;13.75;9.07;;;6.80;99.90;;;;;;5031818;28;20033;-55
2022/11/06 05:56:44;;;;;;;12.57;9.25;;;6.90;99.90;;;;;;5031257;28;20040;-55
2022/11/06 05:59:30;;;;;;;13.85;9.30;;;6.80;99.90;;;;;;5032320;28;20029;-55
2022/11/06 06:02:16;;;;;;;14.05;9.25;;;6.70;99.90;;;;;;5031100;28;20060;-55
2022/11/06 06:05:03;;;;;;;16.33;10.38;;;6.60;99.90;;;;;;5031105;28;20112;-54
2022/11/06 06:07:49;;;;;;;14.90;10.10;;;6.60;99.90;;;;;;5011598;28;20121;-53
2022/11/06 06:10:39;;;;;;;12.75;9.98;;;6.70;99.90;;;;;;5017767;28;20033;-54
2022/11/06 06:13:24;;;;;;;12.10;10.13;;;6.70;99.90;;;;;;5031592;28;20033;-57
2022/11/06 06:16:10;;;;;;;16.58;11.20;;;6.70;99.90;;;;;;5031607;28;20060;-51
2022/11/06 06:18:56;;;;;;;14.52;11.80;;;6.70;99.90;;;;;;5031119;28;20033;-57
2022/11/06 06:21:42;;;;;;;14.18;10.60;;;6.70;99.90;;;;;;5030949;28;20065;-54
2022/11/06 06:24:28;;;;;;;15.68;9.57;;;6.80;99.90;;;;;;5032336;28;20083;-54
2022/11/06 06:27:14;;;;;;;11.20;8.80;;;6.80;99.90;;;;;;5030591;28;20099;-50
2022/11/06 06:30:00;;;;;;;15.45;9.75;;;6.90;99.90;;;;;;5030923;28;20034;-54
2022/11/06 06:32:46;;;;;;;13.90;9.80;;;7.00;99.90;;;;;;5011447;28;20057;-55
2022/11/06 06:35:32;;;;;;;15.63;10.70;;;6.90;99.90;;;;;;5030213;28;20398;-57
2022/11/06 06:38:18;;;;;;;20.35;13.80;;;6.90;99.90;;;;;;5031185;28;20041;-51
2022/11/06 06:41:06;;;;;;;16.30;10.63;;;6.80;99.90;;;;;;5012905;28;20034;-53
2022/11/06 06:43:52;;;;;;;14.50;10.18;;;6.80;99.90;;;;;;5001078;28;20078;-55
2022/11/06 06:46:38;;;;;;;11.65;9.65;;;6.90;99.90;;;;;;5031421;28;20029;-54
2022/11/06 06:49:24;;;;;;;13.02;9.68;;;6.90;99.90;;;;;;5030633;28;20075;-60
2022/11/06 06:52:11;;;;;;;14.95;9.88;;;7.00;99.90;;;;;;5029844;28;20025;-51
2022/11/06 06:54:57;;;;;;;11.52;9.40;;;7.00;99.90;;;;;;5002730;28;20063;-53
2022/11/06 06:57:43;;;;;;;12.40;9.88;;;6.90;99.90;;;;;;5030418;28;20034;-56
2022/11/06 07:00:29;;;;;;;14.88;9.52;;;7.00;99.90;;;;;;5030342;28;20052;-56
2022/11/06 07:03:15;;;;;;;15.30;10.10;;;7.00;99.90;;;;;;5030659;28;20111;-55
2022/11/06 07:06:01;;;;;;;15.23;10.80;;;7.10;99.90;;;;;;5016732;28;20386;-57
2022/11/06 07:08:47;;;;;;;11.57;9.52;;;7.10;99.90;;;;;;5016070;28;20657;-54
2022/11/06 07:11:33;;;;;;;13.30;9.70;;;7.10;99.90;;;;;;5010590;28;20026;-54
2022/11/06 07:14:19;;;;;;;17.30;12.73;;;7.20;99.90;;;;;;5000162;28;20125;-56
2022/11/06 07:17:05;;;;;;;14.45;10.75;;;7.30;99.90;;;;;;5030650;28;20079;-55
2022/11/06 07:19:50;;;;;;;14.73;9.93;;;7.40;99.90;;;;;;5016576;28;20382;-56
2022/11/06 07:22:36;;;;;;;14.57;10.40;;;7.40;99.90;;;;;;5030829;28;20091;-54
2022/11/06 07:25:23;;;;;;;14.18;9.02;;;7.40;99.90;;;;;;5030016;28;20037;-56
2022/11/06 07:28:09;;;;;;;14.75;10.88;;;7.40;99.90;;;;;;5029779;28;20375;-56
2022/11/06 07:31:06;;;;;;;17.40;10.23;;;7.50;99.90;;;;;;5030127;28;20022;-57
2022/11/06 07:33:54;;;;;;;15.45;11.77;;;7.50;99.90;;;;;;5029554;28;20105;-57
2022/11/06 07:36:40;;;;;;;19.17;12.00;;;7.50;99.90;;;;;;5016234;28;20163;-52
2022/11/06 07:39:26;;;;;;;22.95;12.32;;;7.50;99.90;;;;;;5016772;28;20037;-53
2022/11/06 07:42:12;;;;;;;22.73;13.25;;;7.50;99.90;;;;;;5015548;28;20037;-55
2022/11/06 07:44:58;;;;;;;17.17;11.25;;;7.60;99.90;;;;;;5031409;28;20026;-52
2022/11/06 07:47:44;;;;;;;18.52;11.20;;;7.70;99.90;;;;;;5029190;28;20482;-57
2022/11/06 07:50:30;;;;;;;21.38;12.27;;;7.70;99.90;;;;;;5030746;28;20084;-59
2022/11/06 07:53:16;;;;;;;19.10;11.85;;;7.70;99.90;;;;;;5030636;28;20034;-56
2022/11/06 07:56:02;;;;;;;15.77;11.65;;;7.80;99.90;;;;;;5030726;28;20030;-52
2022/11/06 07:58:48;;;;;;;19.08;11.88;;;7.80;99.90;;;;;;5030139;28;20029;-57
2022/11/06 08:01:34;;;;;;;18.10;11.40;;;7.90;99.90;;;;;;5029028;28;20559;-54
2022/11/06 08:04:20;;;;;;;16.30;12.20;;;7.80;99.90;;;;;;5029146;28;20562;-57
2022/11/06 08:07:06;;;;;;;16.17;11.48;;;7.80;99.90;;;;;;5028667;28;20543;-58
2022/11/06 08:09:52;;;;;;;16.25;10.93;;;7.80;99.90;;;;;;5030492;28;20108;-55
2022/11/06 08:12:38;;;;;;;13.60;10.68;;;7.90;99.90;;;;;;4983880;28;20034;-56
2022/11/06 08:15:24;;;;;;;14.63;10.85;;;7.90;99.90;;;;;;5013858;28;20029;-55
2022/11/06 08:18:11;;;;;;;15.98;11.88;;;8.00;99.90;;;;;;5029759;28;20065;-56
2022/11/06 08:20:56;;;;;;;15.68;10.80;;;8.00;99.90;;;;;;5029777;28;20486;-51
2022/11/06 08:23:42;;;;;;;17.00;10.75;;;8.00;99.90;;;;;;5029109;28;20482;-54
2022/11/06 08:26:28;;;;;;;15.73;10.27;;;8.00;99.90;;;;;;5015290;28;20030;-54
2022/11/06 08:29:14;;;;;;;13.20;10.82;;;8.00;99.90;;;;;;5029845;28;20034;-58
2022/11/06 08:32:00;;;;;;;15.27;10.35;;;8.10;99.90;;;;;;5028128;28;20026;-57
2022/11/06 08:34:46;;;;;;;16.67;10.18;;;8.20;99.90;;;;;;5028482;28;20566;-57
2022/11/06 08:37:32;;;;;;;15.30;10.07;;;8.30;99.90;;;;;;5030234;28;20041;-55
2022/11/06 08:40:19;;;;;;;13.55;9.90;;;8.30;99.90;;;;;;5032757;28;20037;-57
2022/11/06 08:43:08;;;;;;;12.43;9.88;;;8.30;99.90;;;;;;5033172;28;20116;-53
2022/11/06 08:45:54;;;;;;;12.90;9.52;;;8.40;99.90;;;;;;5019251;28;20038;-55
2022/11/06 08:48:40;;;;;;;12.77;9.43;;;8.50;99.90;;;;;;5031806;28;20032;-56
2022/11/06 08:51:26;;;;;;;14.95;9.52;;;8.50;99.90;;;;;;5026197;28;20039;-55
2022/11/06 08:54:12;;;;;;;9.32;7.72;;;8.60;99.90;;;;;;5016342;28;20072;-59
2022/11/06 08:56:59;;;;;;;13.30;8.48;;;8.60;99.90;;;;;;5031077;28;20045;-55
2022/11/06 08:59:45;;;;;;;9.65;8.35;;;8.70;99.90;;;;;;5033586;28;20025;-59
2022/11/06 09:02:32;;;;;;;16.55;9.80;;;8.80;99.90;;;;;;5032353;28;20052;-55
2022/11/06 09:05:17;;;;;;;11.75;8.70;;;8.90;99.90;;;;;;5004995;28;20026;-53
2022/11/06 09:08:04;;;;;;;11.07;7.90;;;8.90;99.90;;;;;;5031803;28;20076;-55
2022/11/06 09:10:50;;;;;;;13.30;9.52;;;8.90;99.90;;;;;;5031872;28;20021;-55
2022/11/06 09:13:36;;;;;;;11.10;8.15;;;9.00;99.90;;;;;;5032063;28;20498;-52
2022/11/06 09:16:23;;;;;;;13.43;8.98;;;9.00;99.90;;;;;;5030706;28;20055;-52
2022/11/06 09:19:09;;;;;;;12.13;8.70;;;9.10;99.90;;;;;;5009922;28;20025;-58
2022/11/06 09:21:55;;;;;;;16.63;9.00;;;9.20;99.90;;;;;;5031656;28;20668;-64
2022/11/06 09:24:41;;;;;;;13.90;8.90;;;9.30;99.90;;;;;;5031835;28;20112;-68
2022/11/06 09:27:27;;;;;;;12.15;8.07;;;9.40;99.90;;;;;;5027888;28;20018;-64
2022/11/06 09:30:15;;;;;;;15.65;8.32;;;9.30;99.90;;;;;;5004652;28;20809;-60
2022/11/06 09:33:02;;;;;;;11.40;7.90;;;9.30;99.90;;;;;;5018067;28;20071;-61
2022/11/06 09:35:48;;;;;;;10.52;8.02;;;9.30;99.90;;;;;;5018275;28;20044;-61
2022/11/06 09:38:34;;;;;;;9.25;8.02;;;9.40;99.90;;;;;;5004180;28;20037;-60
2022/11/06 09:41:26;;;;;;;14.10;9.23;;;9.40;99.90;;;;;;5017569;28;20033;-57
2022/11/06 09:44:31;;;;;;;14.85;9.25;;;9.50;99.90;;;;;;5019328;28;20528;-61
2022/11/06 09:47:31;;;;;;;12.88;7.70;;;9.60;99.90;;;;;;5028714;28;20105;-62
2022/11/06 09:50:22;;;;;;;15.30;7.85;;;9.60;99.90;;;;;;5028628;28;20518;-62
2022/11/06 09:53:43;;;;;;;10.02;7.63;;;9.60;99.90;;;;;;5017758;28;20026;-61
2022/11/06 09:56:34;;;;;;;9.65;6.93;;;9.70;99.90;;;;;;5031370;28;20064;-62
2022/11/06 09:59:20;;;;;;;10.48;7.22;;;9.80;99.90;;;;;;5017761;28;20032;-61
2022/11/06 10:02:28;;;;;;;12.85;7.10;;;9.80;99.90;;;;;;5017143;28;20030;-61
2022/11/06 10:05:14;;;;;;;10.13;6.70;;;9.90;99.90;;;;;;5017127;28;20060;-62
2022/11/06 10:08:25;;;;;;;12.70;7.28;;;10.00;99.90;;;;;;5031397;28;20068;-63
2022/11/06 10:11:14;;;;;;;10.77;6.63;;;10.10;99.90;;;;;;5031912;28;20017;-57
2022/11/06 10:14:26;;;;;;;9.65;7.03;;;10.10;99.90;;;;;;5016413;28;20095;-60
2022/11/06 10:17:37;;;;;;;10.32;6.13;;;10.20;99.90;;;;;;5015651;28;20021;-59
2022/11/06 10:20:30;;;;;;;6.88;5.15;;;10.30;99.90;;;;;;5023932;28;20057;-63
2022/11/06 10:23:26;;;;;;;10.30;5.57;;;10.50;99.90;;;;;;5031233;28;20022;-60
2022/11/06 10:26:18;;;;;;;6.90;5.07;;;10.50;99.90;;;;;;5031240;28;20026;-63
2022/11/06 10:29:19;;;;;;;9.05;6.30;;;10.50;99.90;;;;;;5030783;28;20017;-61
2022/11/06 10:32:29;;;;;;;8.00;5.63;;;10.60;99.90;;;;;;5030159;28;20028;-63
2022/11/06 10:35:24;;;;;;;7.43;5.22;;;10.70;99.90;;;;;;5030943;28;20683;-59
2022/11/06 10:38:17;;;;;;;8.52;5.22;;;10.70;99.90;;;;;;5017881;28;20117;-61
2022/11/06 10:41:03;;;;;;;7.22;5.53;;;10.70;99.90;;;;;;5014765;28;20049;-66
2022/11/06 10:44:22;;;;;;;6.30;4.95;;;10.90;99.90;;;;;;5025170;28;20025;-63
2022/11/06 10:47:14;;;;;;;8.00;5.10;;;10.90;99.90;;;;;;5029672;28;20517;-62
2022/11/06 10:50:03;;;;;;;8.00;5.25;;;10.90;99.90;;;;;;5029690;28;20096;-63
2022/11/06 10:52:55;;;;;;;8.40;5.10;;;11.00;99.90;;;;;;5029594;28;20076;-63
2022/11/06 10:56:10;;;;;;;8.90;5.03;;;11.00;99.90;;;;;;5030406;28;20052;-63
2022/11/06 10:58:57;;;;;;;9.23;5.00;;;11.00;99.80;;;;;;5029988;28;20021;-61
2022/11/06 11:01:43;;;;;;;6.40;5.10;;;11.00;99.90;;;;;;5003348;28;20390;-63
2022/11/06 11:04:31;;;;;;;8.07;4.82;;;11.00;99.90;;;;;;5013702;28;20092;-60
2022/11/06 11:07:17;;;;;;;8.05;5.07;;;10.90;99.90;;;;;;5015953;28;20100;-61
2022/11/06 11:10:22;;;;;;;7.35;4.68;;;11.10;99.70;;;;;;5016154;28;20410;-64
2022/11/06 11:13:19;;;;;;;9.55;4.95;;;11.10;99.60;;;;;;5015404;28;20566;-61
2022/11/06 11:16:20;;;;;;;7.45;4.68;;;11.10;99.60;;;;;;5016058;28;20029;-63
2022/11/06 11:19:33;;;;;;;6.40;4.60;;;11.20;99.60;;;;;;5030679;28;20029;-63
2022/11/06 11:22:21;;;;;;;6.57;4.65;;;11.40;99.00;;;;;;5030116;28;20021;-62
2022/11/06 11:25:23;;;;;;;7.65;4.82;;;11.50;98.90;;;;;;5015668;28;20037;-66
2022/11/06 11:28:25;;;;;;;7.75;4.45;;;11.60;98.70;;;;;;5007214;28;20394;-65
2022/11/06 11:31:15;;;;;;;6.90;4.63;;;11.50;98.40;;;;;;5016982;28;20112;-62
2022/11/06 11:34:04;;;;;;;6.20;4.88;;;11.50;98.60;;;;;;5016038;28;20625;-64
2022/11/06 11:37:00;;;;;;;7.25;4.35;;;11.60;98.40;;;;;;5017017;28;20021;-64
2022/11/06 11:39:46;;;;;;;7.25;4.35;;;11.60;98.10;;;;;;5030207;28;20120;-62
2022/11/06 11:42:32;;;;;;;8.27;4.70;;;11.60;98.00;;;;;;5029406;28;20083;-63
2022/11/06 11:45:20;;;;;;;8.70;4.20;;;11.50;98.00;;;;;;5002320;28;20052;-63
2022/11/06 11:48:12;;;;;;;4.60;3.97;;;11.70;98.00;;;;;;5029966;28;20064;-65
2022/11/06 11:51:11;;;;;;;7.38;4.55;;;11.80;97.80;;;;;;5022286;28;20033;-63
2022/11/06 11:54:18;;;;;;;4.97;3.90;;;11.80;97.50;;;;;;5028060;28;20040;-65
2022/11/06 11:57:16;;;;;;;6.18;3.90;;;11.70;97.30;;;;;;5029698;28;20176;-63
2022/11/06 12:00:05;;;;;;;5.78;4.20;;;11.70;97.40;;;;;;5029458;28;20635;-62
2022/11/06 12:02:56;;;;;;;5.30;4.13;;;11.80;97.00;;;;;;5002332;28;20044;-60
2022/11/06 12:05:43;;;;;;;5.60;4.22;;;11.80;96.90;;;;;;5015673;28;20033;-62
2022/11/06 12:08:29;;;;;;;5.20;4.05;;;11.90;96.70;;;;;;4995420;28;20022;-61
2022/11/06 12:11:21;;;;;;;5.32;3.63;;;11.80;96.80;;;;;;5009779;28;20064;-63
2022/11/06 12:14:30;;;;;;;6.07;3.90;;;11.90;96.40;;;;;;5018790;28;20083;-63
2022/11/06 12:17:20;;;;;;;6.18;3.72;;;12.00;96.10;;;;;;5033375;28;20075;-62
2022/11/06 12:20:14;;;;;;;6.65;4.00;;;12.00;96.00;;;;;;5019082;28;20517;-66
2022/11/06 12:23:02;;;;;;;6.50;4.10;;;12.10;95.80;;;;;;5018198;28;20565;-64
2022/11/06 12:26:03;;;;;;;5.45;3.80;;;12.20;95.40;;;;;;5020172;28;20283;-63
2022/11/06 12:28:53;;;;;;;5.20;3.90;;;12.20;95.40;;;;;;5032746;28;20033;-61
2022/11/06 12:31:45;;;;;;;5.22;4.45;;;12.30;95.20;;;;;;5032221;28;20048;-64
2022/11/06 12:34:59;;;;;;;4.85;3.78;;;12.30;95.30;;;;;;5019169;28;20121;-64
2022/11/06 12:38:06;;;;;;;6.30;4.40;;;12.30;95.00;;;;;;5032539;28;21630;-64
2022/11/06 12:40:55;;;;;;;5.00;4.30;;;12.30;94.80;;;;;;5032777;28;20041;-63
2022/11/06 12:43:49;;;;;;;6.60;3.80;;;12.40;94.70;;;;;;5032420;28;20076;-64
2022/11/06 12:46:59;;;;;;;5.60;4.00;;;12.40;94.60;;;;;;5032520;28;20502;-64
2022/11/06 12:50:27;;;;;;;8.98;4.35;;;12.50;94.40;;;;;;5031521;28;20017;-65
2022/11/06 12:53:30;;;;;;;4.93;3.50;;;12.50;94.30;;;;;;5029511;28;20018;-65
2022/11/06 12:56:30;;;;;;;7.78;4.28;;;12.80;94.10;;;;;;5032051;28;20546;-65
2022/11/06 12:59:40;;;;;;;5.18;3.60;;;12.90;94.00;;;;;;5031174;28;20029;-66
2022/11/06 13:02:47;;;;;;;7.43;4.38;;;13.00;93.50;;;;;;5032478;28;20112;-67
2022/11/06 13:05:47;;;;;;;5.95;3.83;;;13.10;93.30;;;;;;5031549;28;20105;-66
2022/11/06 13:08:51;;;;;;;5.47;3.83;;;13.30;93.20;;;;;;5032513;28;20091;-64
2022/11/06 13:11:51;;;;;;;6.35;4.30;;;13.40;93.10;;;;;;5031820;28;20022;-65
2022/11/06 13:14:48;;;;;;;4.93;3.95;;;13.50;92.50;;;;;;5019015;28;20038;-64
2022/11/06 13:17:45;;;;;;;5.25;3.60;;;13.30;92.60;;;;;;5016707;28;20401;-65
2022/11/06 13:20:39;;;;;;;5.30;3.40;;;13.40;92.50;;;;;;5013768;28;20113;-66
2022/11/06 13:23:38;;;;;;;5.95;3.63;;;13.50;92.40;;;;;;5018111;28;20026;-65
2022/11/06 13:26:51;;;;;;;5.47;3.40;;;13.60;92.20;;;;;;5032598;28;20569;-64
2022/11/06 13:29:37;;;;;;;6.00;3.80;;;13.70;91.70;;;;;;5020573;28;20482;-66
2022/11/06 13:32:24;;;;;;;5.93;3.60;;;13.60;91.50;;;;;;5017585;28;20076;-64
2022/11/06 13:35:18;;;;;;;4.68;3.20;;;13.60;91.40;;;;;;5032248;28;20498;-63
2022/11/06 13:38:07;;;;;;;3.90;3.30;;;13.80;91.50;;;;;;5031460;28;20029;-64
2022/11/06 13:40:58;;;;;;;3.83;3.20;;;13.90;90.80;;;;;;5031865;28;20022;-64
2022/11/06 13:43:51;;;;;;;4.43;3.25;;;14.20;90.50;;;;;;5012071;28;20060;-64
2022/11/06 13:47:19;;;;;;;5.75;3.22;;;14.30;90.30;;;;;;5013026;28;20064;-64
2022/11/06 13:50:20;;;;;;;4.30;3.20;;;14.70;90.10;;;;;;5031512;28;20051;-68
2022/11/06 13:53:25;;;;;;;4.43;3.15;;;14.50;89.30;;;;;;5031031;28;20022;-64
2022/11/06 13:56:29;;;;;;;6.03;3.85;;;14.50;89.30;;;;;;5023134;28;20100;-63
2022/11/06 13:59:21;;;;;;;11.98;4.40;;;14.50;89.10;;;;;;5031629;28;20030;-62
2022/11/06 14:02:28;;;;;;;9.13;5.18;;;14.70;88.60;;;;;;5010904;28;20111;-65
2022/11/06 14:05:41;;;;;;;5.80;3.60;;;15.20;87.20;;;;;;5012471;28;20041;-63
2022/11/06 14:08:32;;;;;;;5.13;3.13;;;15.50;86.30;;;;;;5020734;28;20018;-65
2022/11/06 14:11:25;;;;;;;5.13;3.25;;;16.00;84.70;;;;;;5017158;28;20022;-63
2022/11/06 14:14:23;;;;;;;4.13;3.15;;;16.20;83.00;;;;;;5029973;28;20493;-67
2022/11/06 14:17:14;;;;;;;5.47;4.47;;;17.10;80.80;;;;;;5029297;28;20117;-62
2022/11/06 14:20:06;;;;;;;4.82;3.20;;;17.40;82.50;;;;;;5014027;28;20031;-61
2022/11/06 14:22:52;;;;;;;5.28;3.45;;;17.60;81.30;;;;;;5024451;28;20498;-59
2022/11/06 14:25:41;;;;;;;6.95;3.25;;;18.00;82.00;;;;;;5009835;28;20033;-59
2022/11/06 14:28:29;;;;;;;5.53;3.75;;;18.30;80.60;;;;;;5025576;28;20026;-69
2022/11/06 14:31:54;;;;;;;4.25;3.22;;;17.50;80.00;;;;;;5021390;28;20026;-66
2022/11/06 14:34:42;;;;;;;12.13;5.60;;;16.30;82.70;;;;;;5031098;28;20033;-63
2022/11/06 14:37:27;;;;;;;5.20;3.10;;;15.40;84.20;;;;;;5022013;28;20498;-64
2022/11/06 14:40:31;;;;;;;6.00;3.92;;;15.00;86.10;;;;;;5025287;28;20508;-63
2022/11/06 14:43:19;;;;;;;6.50;3.70;;;14.60;86.80;;;;;;5004888;28;20061;-60
2022/11/06 14:46:14;;;;;;;5.57;3.55;;;14.40;86.80;;;;;;5019211;28;20040;-60
2022/11/06 14:49:47;;;;;;;5.82;4.00;;;14.10;86.60;;;;;;5021324;28;20580;-62
2022/11/06 14:52:51;;;;;;;5.53;3.80;;;13.90;87.30;;;;;;5021630;28;20029;-61
2022/11/06 14:55:45;;;;;;;6.28;3.65;;;13.90;87.60;;;;;;5009789;28;20112;-63
2022/11/06 14:58:47;;;;;;;5.45;3.63;;;13.70;88.20;;;;;;5007909;28;20053;-62
2022/11/06 15:01:35;;;;;;;5.32;3.47;;;13.60;89.50;;;;;;5010741;28;20033;-61
2022/11/06 15:04:24;;;;;;;8.40;3.83;;;13.60;90.00;;;;;;5000658;28;20033;-63
2022/11/06 15:07:56;;;;;;;6.75;4.55;;;13.60;90.30;;;;;;5028933;28;20597;-63